sensor_id;sensor_type;location;lat;lon;timestamp;P1;durP1;ratioP1;P2;durP2;ratioP2
56419;SDS011;42323;52.170;7.538;2023-05-10T00:00:42;5.35;;;3.90;;
56419;SDS011;42323;52.170;7.538;2023-05-10T00:03:08;6.32;;;4.28;;
56419;SDS011;42323;52.170;7.538;2023-05-10T00:05:35;6.78;;;4.10;;
56419;SDS011;42323;52.170;7.538;2023-05-10T00:08:01;7.03;;;4.40;;
56419;SDS011;42323;52.170;7.538;2023-05-10T00:10:28;6.57;;;4.20;;
56419;SDS011;42323;52.170;7.538;2023-05-10T00:12:54;6.25;;;4.53;;
56419;SDS011;42323;52.170;7.538;2023-05-10T00:15:21;8.23;;;5.50;;
56419;SDS011;42323;52.170;7.538;2023-05-10T00:17:47;8.48;;;5.53;;
56419;SDS011;42323;52.170;7.538;2023-05-10T00:20:14;7.65;;;5.03;;
56419;SDS011;42323;52.170;7.538;2023-05-10T00:22:41;7.60;;;5.32;;
56419;SDS011;42323;52.170;7.538;2023-05-10T00:25:08;7.25;;;5.03;;
56419;SDS011;42323;52.170;7.538;2023-05-10T00:27:35;6.18;;;4.38;;
56419;SDS011;42323;52.170;7.538;2023-05-10T00:30:02;6.57;;;4.50;;
56419;SDS011;42323;52.170;7.538;2023-05-10T00:32:29;7.55;;;4.13;;
56419;SDS011;42323;52.170;7.538;2023-05-10T00:34:55;6.05;;;4.03;;
56419;SDS011;42323;52.170;7.538;2023-05-10T00:37:22;5.78;;;3.60;;
56419;SDS011;42323;52.170;7.538;2023-05-10T00:39:48;5.20;;;3.75;;
56419;SDS011;42323;52.170;7.538;2023-05-10T00:42:15;6.15;;;3.72;;
56419;SDS011;42323;52.170;7.538;2023-05-10T00:44:41;4.85;;;3.42;;
56419;SDS011;42323;52.170;7.538;2023-05-10T00:47:08;5.63;;;3.57;;
56419;SDS011;42323;52.170;7.538;2023-05-10T00:49:35;4.22;;;3.05;;
56419;SDS011;42323;52.170;7.538;2023-05-10T00:52:02;4.55;;;3.00;;
56419;SDS011;42323;52.170;7.538;2023-05-10T00:54:29;4.72;;;3.13;;
56419;SDS011;42323;52.170;7.538;2023-05-10T00:56:56;4.20;;;2.78;;
56419;SDS011;42323;52.170;7.538;2023-05-10T00:59:23;4.05;;;2.70;;
56419;SDS011;42323;52.170;7.538;2023-05-10T01:01:50;4.30;;;2.80;;
56419;SDS011;42323;52.170;7.538;2023-05-10T01:04:17;4.18;;;2.85;;
56419;SDS011;42323;52.170;7.538;2023-05-10T01:06:46;4.55;;;2.95;;
56419;SDS011;42323;52.170;7.538;2023-05-10T01:09:12;5.03;;;2.80;;
56419;SDS011;42323;52.170;7.538;2023-05-10T01:11:39;3.78;;;2.55;;
56419;SDS011;42323;52.170;7.538;2023-05-10T01:14:06;4.90;;;3.38;;
56419;SDS011;42323;52.170;7.538;2023-05-10T01:16:36;5.30;;;3.17;;
56419;SDS011;42323;52.170;7.538;2023-05-10T01:19:11;4.50;;;3.37;;
56419;SDS011;42323;52.170;7.538;2023-05-10T01:21:47;5.78;;;3.28;;
56419;SDS011;42323;52.170;7.538;2023-05-10T01:24:39;6.15;;;3.60;;
56419;SDS011;42323;52.170;7.538;2023-05-10T01:33:07;4.22;;;2.90;;
56419;SDS011;42323;52.170;7.538;2023-05-10T01:35:40;4.47;;;3.08;;
56419;SDS011;42323;52.170;7.538;2023-05-10T01:41:00;4.73;;;2.97;;
56419;SDS011;42323;52.170;7.538;2023-05-10T01:43:32;3.78;;;2.58;;
56419;SDS011;42323;52.170;7.538;2023-05-10T01:46:16;3.58;;;2.30;;
56419;SDS011;42323;52.170;7.538;2023-05-10T01:48:55;3.30;;;2.25;;
56419;SDS011;42323;52.170;7.538;2023-05-10T01:51:25;3.75;;;2.28;;
56419;SDS011;42323;52.170;7.538;2023-05-10T01:53:58;4.00;;;2.55;;
56419;SDS011;42323;52.170;7.538;2023-05-10T01:56:28;3.15;;;2.30;;
56419;SDS011;42323;52.170;7.538;2023-05-10T01:58:56;4.22;;;2.50;;
56419;SDS011;42323;52.170;7.538;2023-05-10T02:01:26;3.78;;;2.50;;
56419;SDS011;42323;52.170;7.538;2023-05-10T02:03:54;3.90;;;2.78;;
56419;SDS011;42323;52.170;7.538;2023-05-10T02:06:23;4.22;;;2.78;;
56419;SDS011;42323;52.170;7.538;2023-05-10T02:08:51;4.32;;;2.75;;
56419;SDS011;42323;52.170;7.538;2023-05-10T02:11:19;4.97;;;3.30;;
56419;SDS011;42323;52.170;7.538;2023-05-10T02:13:47;5.15;;;3.13;;
56419;SDS011;42323;52.170;7.538;2023-05-10T02:16:16;4.45;;;3.03;;
56419;SDS011;42323;52.170;7.538;2023-05-10T02:18:44;4.97;;;3.30;;
56419;SDS011;42323;52.170;7.538;2023-05-10T02:21:12;5.72;;;3.40;;
56419;SDS011;42323;52.170;7.538;2023-05-10T02:23:41;5.03;;;3.13;;
56419;SDS011;42323;52.170;7.538;2023-05-10T02:26:09;5.50;;;3.80;;
56419;SDS011;42323;52.170;7.538;2023-05-10T02:28:38;6.72;;;4.18;;
56419;SDS011;42323;52.170;7.538;2023-05-10T02:31:06;6.90;;;4.40;;
56419;SDS011;42323;52.170;7.538;2023-05-10T02:33:36;6.50;;;4.28;;
56419;SDS011;42323;52.170;7.538;2023-05-10T02:36:07;6.70;;;4.40;;
56419;SDS011;42323;52.170;7.538;2023-05-10T02:38:35;7.05;;;4.60;;
56419;SDS011;42323;52.170;7.538;2023-05-10T02:41:02;6.97;;;4.80;;
56419;SDS011;42323;52.170;7.538;2023-05-10T02:43:32;7.28;;;5.00;;
56419;SDS011;42323;52.170;7.538;2023-05-10T02:45:59;7.90;;;5.00;;
56419;SDS011;42323;52.170;7.538;2023-05-10T02:48:26;7.25;;;4.60;;
56419;SDS011;42323;52.170;7.538;2023-05-10T02:50:54;8.02;;;5.15;;
56419;SDS011;42323;52.170;7.538;2023-05-10T02:53:30;7.40;;;4.85;;
56419;SDS011;42323;52.170;7.538;2023-05-10T02:56:03;7.32;;;5.00;;
56419;SDS011;42323;52.170;7.538;2023-05-10T02:58:34;7.28;;;5.03;;
56419;SDS011;42323;52.170;7.538;2023-05-10T03:01:00;9.73;;;4.97;;
56419;SDS011;42323;52.170;7.538;2023-05-10T03:03:27;7.30;;;4.77;;
56419;SDS011;42323;52.170;7.538;2023-05-10T03:05:53;7.53;;;4.82;;
56419;SDS011;42323;52.170;7.538;2023-05-10T03:08:22;7.07;;;4.55;;
56419;SDS011;42323;52.170;7.538;2023-05-10T03:14:09;7.97;;;4.70;;
56419;SDS011;42323;52.170;7.538;2023-05-10T03:16:41;6.60;;;4.40;;
56419;SDS011;42323;52.170;7.538;2023-05-10T03:21:49;6.13;;;4.25;;
56419;SDS011;42323;52.170;7.538;2023-05-10T03:24:20;6.53;;;4.43;;
56419;SDS011;42323;52.170;7.538;2023-05-10T03:26:48;6.50;;;4.30;;
56419;SDS011;42323;52.170;7.538;2023-05-10T03:29:16;6.53;;;4.28;;
56419;SDS011;42323;52.170;7.538;2023-05-10T03:31:43;7.38;;;4.50;;
56419;SDS011;42323;52.170;7.538;2023-05-10T03:34:10;6.82;;;4.25;;
56419;SDS011;42323;52.170;7.538;2023-05-10T03:36:37;6.47;;;4.05;;
56419;SDS011;42323;52.170;7.538;2023-05-10T03:39:04;6.70;;;4.05;;
56419;SDS011;42323;52.170;7.538;2023-05-10T03:41:30;6.03;;;3.70;;
56419;SDS011;42323;52.170;7.538;2023-05-10T03:43:57;6.27;;;4.07;;
56419;SDS011;42323;52.170;7.538;2023-05-10T03:46:24;6.18;;;3.90;;
56419;SDS011;42323;52.170;7.538;2023-05-10T03:48:51;5.07;;;3.55;;
56419;SDS011;42323;52.170;7.538;2023-05-10T03:51:18;4.88;;;3.40;;
56419;SDS011;42323;52.170;7.538;2023-05-10T03:53:44;5.13;;;3.67;;
56419;SDS011;42323;52.170;7.538;2023-05-10T03:56:11;5.82;;;3.45;;
56419;SDS011;42323;52.170;7.538;2023-05-10T03:58:37;6.65;;;3.70;;
56419;SDS011;42323;52.170;7.538;2023-05-10T04:01:03;6.75;;;4.50;;
56419;SDS011;42323;52.170;7.538;2023-05-10T04:03:30;8.30;;;4.70;;
56419;SDS011;42323;52.170;7.538;2023-05-10T04:06:00;7.78;;;4.53;;
56419;SDS011;42323;52.170;7.538;2023-05-10T04:08:28;7.70;;;4.75;;
56419;SDS011;42323;52.170;7.538;2023-05-10T04:11:04;6.65;;;4.78;;
56419;SDS011;42323;52.170;7.538;2023-05-10T04:13:31;8.75;;;5.18;;
56419;SDS011;42323;52.170;7.538;2023-05-10T04:15:58;9.60;;;5.37;;
56419;SDS011;42323;52.170;7.538;2023-05-10T04:18:24;9.82;;;5.30;;
56419;SDS011;42323;52.170;7.538;2023-05-10T04:20:51;8.95;;;5.70;;
56419;SDS011;42323;52.170;7.538;2023-05-10T04:23:18;10.13;;;6.00;;
56419;SDS011;42323;52.170;7.538;2023-05-10T04:25:44;11.13;;;5.68;;
56419;SDS011;42323;52.170;7.538;2023-05-10T04:28:11;10.05;;;5.82;;
56419;SDS011;42323;52.170;7.538;2023-05-10T04:30:38;8.90;;;6.00;;
56419;SDS011;42323;52.170;7.538;2023-05-10T04:33:05;11.13;;;6.32;;
56419;SDS011;42323;52.170;7.538;2023-05-10T04:35:31;10.05;;;5.90;;
56419;SDS011;42323;52.170;7.538;2023-05-10T04:37:58;10.15;;;5.90;;
56419;SDS011;42323;52.170;7.538;2023-05-10T04:40:24;9.73;;;5.73;;
56419;SDS011;42323;52.170;7.538;2023-05-10T04:42:51;9.60;;;6.17;;
56419;SDS011;42323;52.170;7.538;2023-05-10T04:45:18;10.13;;;6.20;;
56419;SDS011;42323;52.170;7.538;2023-05-10T04:47:44;12.70;;;7.03;;
56419;SDS011;42323;52.170;7.538;2023-05-10T04:50:11;10.20;;;6.25;;
56419;SDS011;42323;52.170;7.538;2023-05-10T04:52:38;10.93;;;6.20;;
56419;SDS011;42323;52.170;7.538;2023-05-10T04:55:04;11.88;;;6.90;;
56419;SDS011;42323;52.170;7.538;2023-05-10T04:57:32;12.32;;;6.47;;
56419;SDS011;42323;52.170;7.538;2023-05-10T04:59:59;11.63;;;6.43;;
56419;SDS011;42323;52.170;7.538;2023-05-10T05:02:26;11.25;;;6.88;;
56419;SDS011;42323;52.170;7.538;2023-05-10T05:04:52;11.85;;;7.22;;
56419;SDS011;42323;52.170;7.538;2023-05-10T05:07:19;13.33;;;6.80;;
56419;SDS011;42323;52.170;7.538;2023-05-10T05:09:45;11.37;;;6.80;;
56419;SDS011;42323;52.170;7.538;2023-05-10T05:12:12;12.38;;;7.22;;
56419;SDS011;42323;52.170;7.538;2023-05-10T05:14:40;12.98;;;7.18;;
56419;SDS011;42323;52.170;7.538;2023-05-10T05:17:07;15.63;;;7.40;;
56419;SDS011;42323;52.170;7.538;2023-05-10T05:19:34;14.25;;;7.72;;
56419;SDS011;42323;52.170;7.538;2023-05-10T05:22:01;15.32;;;7.68;;
56419;SDS011;42323;52.170;7.538;2023-05-10T05:24:27;13.40;;;7.47;;
56419;SDS011;42323;52.170;7.538;2023-05-10T05:26:54;12.55;;;7.35;;
56419;SDS011;42323;52.170;7.538;2023-05-10T05:29:20;12.10;;;7.35;;
56419;SDS011;42323;52.170;7.538;2023-05-10T05:31:47;12.75;;;7.38;;
56419;SDS011;42323;52.170;7.538;2023-05-10T05:34:13;15.20;;;7.32;;
56419;SDS011;42323;52.170;7.538;2023-05-10T05:36:40;12.43;;;6.82;;
56419;SDS011;42323;52.170;7.538;2023-05-10T05:39:06;13.00;;;7.10;;
56419;SDS011;42323;52.170;7.538;2023-05-10T05:41:33;12.80;;;6.50;;
56419;SDS011;42323;52.170;7.538;2023-05-10T05:43:59;14.95;;;7.18;;
56419;SDS011;42323;52.170;7.538;2023-05-10T05:46:26;13.60;;;7.43;;
56419;SDS011;42323;52.170;7.538;2023-05-10T05:48:52;12.70;;;6.60;;
56419;SDS011;42323;52.170;7.538;2023-05-10T05:51:19;12.02;;;6.97;;
56419;SDS011;42323;52.170;7.538;2023-05-10T05:53:46;12.52;;;7.15;;
56419;SDS011;42323;52.170;7.538;2023-05-10T05:56:12;13.85;;;7.70;;
56419;SDS011;42323;52.170;7.538;2023-05-10T05:58:39;11.70;;;7.28;;
56419;SDS011;42323;52.170;7.538;2023-05-10T06:01:05;14.70;;;7.68;;
56419;SDS011;42323;52.170;7.538;2023-05-10T06:03:32;16.45;;;8.32;;
56419;SDS011;42323;52.170;7.538;2023-05-10T06:05:59;15.68;;;8.23;;
56419;SDS011;42323;52.170;7.538;2023-05-10T06:08:25;15.15;;;8.13;;
56419;SDS011;42323;52.170;7.538;2023-05-10T06:10:52;19.10;;;9.37;;
56419;SDS011;42323;52.170;7.538;2023-05-10T06:13:18;17.03;;;8.77;;
56419;SDS011;42323;52.170;7.538;2023-05-10T06:15:45;19.20;;;9.27;;
56419;SDS011;42323;52.170;7.538;2023-05-10T06:18:12;21.45;;;10.20;;
56419;SDS011;42323;52.170;7.538;2023-05-10T06:20:40;19.80;;;9.67;;
56419;SDS011;42323;52.170;7.538;2023-05-10T06:23:07;21.53;;;10.23;;
56419;SDS011;42323;52.170;7.538;2023-05-10T06:25:33;27.90;;;12.80;;
56419;SDS011;42323;52.170;7.538;2023-05-10T06:28:00;26.52;;;11.73;;
56419;SDS011;42323;52.170;7.538;2023-05-10T06:30:27;28.13;;;12.85;;
56419;SDS011;42323;52.170;7.538;2023-05-10T06:32:55;26.67;;;12.32;;
56419;SDS011;42323;52.170;7.538;2023-05-10T06:35:22;27.63;;;12.50;;
56419;SDS011;42323;52.170;7.538;2023-05-10T06:37:48;31.02;;;14.18;;
56419;SDS011;42323;52.170;7.538;2023-05-10T06:40:15;30.40;;;13.80;;
56419;SDS011;42323;52.170;7.538;2023-05-10T06:42:42;29.20;;;13.63;;
56419;SDS011;42323;52.170;7.538;2023-05-10T06:45:09;30.25;;;13.73;;
56419;SDS011;42323;52.170;7.538;2023-05-10T06:47:36;29.00;;;13.40;;
56419;SDS011;42323;52.170;7.538;2023-05-10T06:50:04;29.55;;;12.85;;
56419;SDS011;42323;52.170;7.538;2023-05-10T06:52:31;30.88;;;13.55;;
56419;SDS011;42323;52.170;7.538;2023-05-10T06:54:58;33.30;;;13.43;;
56419;SDS011;42323;52.170;7.538;2023-05-10T06:57:24;33.63;;;14.87;;
56419;SDS011;42323;52.170;7.538;2023-05-10T06:59:57;36.47;;;15.20;;
56419;SDS011;42323;52.170;7.538;2023-05-10T07:02:24;34.63;;;15.43;;
56419;SDS011;42323;52.170;7.538;2023-05-10T07:04:51;36.53;;;16.08;;
56419;SDS011;42323;52.170;7.538;2023-05-10T07:07:18;36.92;;;16.23;;
56419;SDS011;42323;52.170;7.538;2023-05-10T07:09:45;33.80;;;14.95;;
56419;SDS011;42323;52.170;7.538;2023-05-10T07:12:12;34.42;;;15.00;;
56419;SDS011;42323;52.170;7.538;2023-05-10T07:14:40;35.72;;;15.55;;
56419;SDS011;42323;52.170;7.538;2023-05-10T07:17:07;33.83;;;14.77;;
56419;SDS011;42323;52.170;7.538;2023-05-10T07:19:34;38.13;;;16.17;;
56419;SDS011;42323;52.170;7.538;2023-05-10T07:22:01;33.45;;;15.52;;
56419;SDS011;42323;52.170;7.538;2023-05-10T07:24:27;32.45;;;15.32;;
56419;SDS011;42323;52.170;7.538;2023-05-10T07:26:54;34.90;;;15.37;;
56419;SDS011;42323;52.170;7.538;2023-05-10T07:29:21;32.60;;;15.27;;
56419;SDS011;42323;52.170;7.538;2023-05-10T07:31:47;33.95;;;15.40;;
56419;SDS011;42323;52.170;7.538;2023-05-10T07:34:13;34.53;;;16.27;;
56419;SDS011;42323;52.170;7.538;2023-05-10T07:36:40;31.10;;;15.15;;
56419;SDS011;42323;52.170;7.538;2023-05-10T07:39:06;33.67;;;15.02;;
56419;SDS011;42323;52.170;7.538;2023-05-10T07:41:33;31.15;;;14.85;;
56419;SDS011;42323;52.170;7.538;2023-05-10T07:44:01;31.42;;;14.55;;
56419;SDS011;42323;52.170;7.538;2023-05-10T07:46:27;32.00;;;15.40;;
